CheckWX is a tool to help pilots better visualize weather data.  It is not intended as a substitute for an official pre-flight weather briefing.

16:58:17 UTC

NZCH METAR
Christchurch International Airport
Christchurch, New Zealand
Current

28 mins ago

NZCH 161630Z AUTO 29019G29KT 9999 NCD 14/03 Q0999 NOSIG
Observed
Sep-16 @ 16:30 UTC
Wind
  • 290° at 19 KTS
  • Gusting to 29 KTS
Visibility
10,000+ meters
Flight Rules
VFR
Cloud Levels
  • Clear skies
Temperature
14°C / 57°F
Dewpoint
C / 37°F
Humidity
48%
Altimeter
29.5" Hg
Pressure
998.92 hPa
Previous

58 mins ago

NZCH 161600Z AUTO 29017KT 9999 NCD 14/03 Q0999 NOSIG
Observed
Sep-16 @ 16:00 UTC
Wind
  • 290° at 17 KTS
Visibility
10,000+ meters
Flight Rules
VFR
Cloud Levels
  • Clear skies
Temperature
14°C / 57°F
Dewpoint
C / 37°F
Humidity
48%
Altimeter
29.5" Hg
Pressure
998.92 hPa
Previous

1 hour ago

NZCH 161530Z AUTO 29017KT 260V330 9999 NCD 14/03 Q0998 NOSIG
Observed
Sep-16 @ 15:30 UTC
Wind
  • 290° at 17 KTS
Visibility
10,000+ meters
Flight Rules
VFR
Cloud Levels
  • Clear skies
Temperature
14°C / 57°F
Dewpoint
C / 37°F
Humidity
48%
Altimeter
29.47" Hg
Pressure
997.92 hPa